createdAt,value
2019-04-11T00:01:02.101Z,9.05
2019-04-11T00:03:29.431Z,8.50
2019-04-11T00:05:56.659Z,8.95
2019-04-11T00:08:23.887Z,7.95
2019-04-11T00:10:51.299Z,7.60
2019-04-11T00:13:23.895Z,6.95
2019-04-11T00:15:48.587Z,7.62
2019-04-11T00:18:16.647Z,7.70
2019-04-11T00:20:44.402Z,7.45
2019-04-11T00:23:12.179Z,7.85
2019-04-11T00:25:39.929Z,7.85
2019-04-11T00:28:07.786Z,7.67
2019-04-11T00:30:35.087Z,7.37
2019-04-11T00:33:02.322Z,6.87
2019-04-11T00:35:29.526Z,7.80
2019-04-11T00:37:57.166Z,7.87
2019-04-11T00:40:24.870Z,7.03
2019-04-11T00:42:52.622Z,8.18
2019-04-11T00:45:19.856Z,7.12
2019-04-11T00:47:47.084Z,7.60
2019-04-11T00:50:14.872Z,6.90
2019-04-11T00:52:42.265Z,7.10
2019-04-11T00:55:09.541Z,7.62
2019-04-11T00:57:37.098Z,6.90
2019-04-11T01:00:06.858Z,8.13
2019-04-11T01:02:34.361Z,7.62
2019-04-11T01:05:01.576Z,7.85
2019-04-11T01:07:29.111Z,7.75
2019-04-11T01:09:56.880Z,7.85
2019-04-11T01:12:24.820Z,7.67
2019-04-11T01:14:53.155Z,7.22
2019-04-11T01:17:21.237Z,6.75
2019-04-11T01:19:49.051Z,7.17
2019-04-11T01:22:16.468Z,7.15
2019-04-11T01:24:43.978Z,7.72
2019-04-11T01:27:11.873Z,8.30
2019-04-11T01:29:39.818Z,6.70
2019-04-11T01:32:08.704Z,9.00
2019-04-11T01:34:36.976Z,7.12
2019-04-11T01:37:04.431Z,6.83
2019-04-11T01:39:43.394Z,7.90
2019-04-11T01:42:11.104Z,6.20
2019-04-11T01:44:38.885Z,7.45
2019-04-11T01:47:08.729Z,7.03
2019-04-11T01:49:36.531Z,6.92
2019-04-11T01:52:05.048Z,6.45
2019-04-11T01:54:32.420Z,7.70
2019-04-11T01:56:59.642Z,6.12
2019-04-11T01:59:27.107Z,7.28
2019-04-11T02:02:12.323Z,5.45
2019-04-11T02:04:41.182Z,6.53
2019-04-11T02:07:08.572Z,6.47
2019-04-11T02:09:35.980Z,7.30
2019-04-11T02:12:03.697Z,6.37
2019-04-11T02:14:31.241Z,6.65
2019-04-11T02:16:59.300Z,6.50
2019-04-11T02:19:26.605Z,6.45
2019-04-11T02:21:55.466Z,6.47
2019-04-11T02:24:30.277Z,6.90
2019-04-11T02:27:08.540Z,6.75
2019-04-11T02:29:35.887Z,7.20
2019-04-11T02:32:05.275Z,6.50
2019-04-11T02:34:32.063Z,5.58
2019-04-11T02:37:00.464Z,7.12
2019-04-11T02:39:30.757Z,6.30
2019-04-11T02:41:59.001Z,6.95
2019-04-11T02:44:34.642Z,6.30
2019-04-11T02:47:01.840Z,6.85
2019-04-11T02:49:25.763Z,5.42
2019-04-11T02:51:53.568Z,6.83
2019-04-11T02:54:24.422Z,6.25
2019-04-11T02:56:52.515Z,7.37
2019-04-11T02:59:21.410Z,5.80
2019-04-11T03:01:50.751Z,7.37
2019-04-11T03:04:20.115Z,6.40
2019-04-11T03:06:47.923Z,6.05
2019-04-11T03:09:15.890Z,7.95
2019-04-11T03:11:45.115Z,7.00
2019-04-11T03:14:14.003Z,7.28
2019-04-11T03:16:55.106Z,6.28
2019-04-11T03:19:25.132Z,6.50
2019-04-11T03:21:41.858Z,6.70
2019-04-11T03:24:10.688Z,6.28
2019-04-11T03:26:37.862Z,6.75
2019-04-11T03:29:06.472Z,6.62
2019-04-11T03:32:13.338Z,6.35
2019-04-11T03:34:53.343Z,6.67
2019-04-11T03:39:21.599Z,6.80
2019-04-11T03:41:49.585Z,7.35
2019-04-11T03:44:09.599Z,6.40
2019-04-11T03:46:43.380Z,7.33
2019-04-11T03:49:06.165Z,7.30
2019-04-11T03:51:27.641Z,7.65
2019-04-11T03:53:56.673Z,6.95
2019-04-11T03:56:24.581Z,6.50
2019-04-11T03:58:53.435Z,7.15
2019-04-11T04:01:22.629Z,6.47
2019-04-11T04:03:51.892Z,5.67
2019-04-11T04:06:21.061Z,7.58
2019-04-11T04:08:48.799Z,7.15
2019-04-11T04:11:19.082Z,7.12
2019-04-11T04:13:59.439Z,7.10
2019-04-11T04:16:39.852Z,6.97
2019-04-11T04:19:05.486Z,6.17
2019-04-11T04:21:38.781Z,6.80
2019-04-11T04:24:08.633Z,6.75
2019-04-11T04:26:36.104Z,7.50
2019-04-11T04:29:04.420Z,7.40
2019-04-11T04:31:32.897Z,6.95
2019-04-11T04:34:01.864Z,6.80
2019-04-11T04:36:30.807Z,7.45
2019-04-11T04:38:59.239Z,6.80
2019-04-11T04:41:37.730Z,8.53
2019-04-11T04:43:57.552Z,7.00
2019-04-11T04:46:39.749Z,6.65
2019-04-11T04:48:55.970Z,7.95
2019-04-11T04:51:24.360Z,7.20
2019-04-11T04:53:52.251Z,7.40
2019-04-11T04:56:24.017Z,8.00
2019-04-11T04:58:50.368Z,8.10
2019-04-11T05:01:19.119Z,7.10
2019-04-11T05:03:47.191Z,8.13
2019-04-11T05:06:16.376Z,6.25
2019-04-11T05:08:45.030Z,8.15
2019-04-11T05:11:13.846Z,6.70
2019-04-11T05:13:44.619Z,7.80
2019-04-11T05:16:17.142Z,7.55
2019-04-11T05:18:39.759Z,7.37
2019-04-11T05:21:07.122Z,7.00
2019-04-11T05:23:34.345Z,5.92
2019-04-11T05:26:01.693Z,6.22
2019-04-11T05:28:29.808Z,7.00
2019-04-11T05:30:58.310Z,8.50
2019-04-11T05:33:25.567Z,6.58
2019-04-11T05:35:54.185Z,6.83
2019-04-11T05:38:21.511Z,7.62
2019-04-11T05:40:48.748Z,6.35
2019-04-11T05:43:15.959Z,6.50
2019-04-11T05:45:43.187Z,6.70
2019-04-11T05:48:12.051Z,6.80
2019-04-11T05:50:43.312Z,8.15
2019-04-11T05:53:09.457Z,8.70
2019-04-11T05:55:41.402Z,7.45
2019-04-11T05:58:11.030Z,7.05
2019-04-11T06:00:42.924Z,7.25
2019-04-11T06:03:10.811Z,7.35
2019-04-11T06:05:59.717Z,7.87
2019-04-11T06:08:28.542Z,7.37
2019-04-11T06:11:15.699Z,7.50
2019-04-11T06:14:03.817Z,6.22
2019-04-11T06:16:36.859Z,8.25
2019-04-11T06:19:04.023Z,8.05
2019-04-11T06:21:33.888Z,7.25
2019-04-11T06:24:20.226Z,6.80
2019-04-11T06:27:06.932Z,6.60
2019-04-11T06:29:52.877Z,7.17
2019-04-11T06:32:21.960Z,7.20
2019-04-11T06:34:57.697Z,7.87
2019-04-11T06:37:41.926Z,7.50
2019-04-11T06:40:11.758Z,6.72
2019-04-11T06:42:40.711Z,6.15
2019-04-11T06:45:09.666Z,6.83
2019-04-11T06:47:51.343Z,7.22
2019-04-11T06:50:23.284Z,7.92
2019-04-11T06:52:50.973Z,7.62
2019-04-11T06:55:23.018Z,7.67
2019-04-11T06:57:54.327Z,7.72
2019-04-11T07:00:21.586Z,7.97
2019-04-11T07:02:50.451Z,7.85
2019-04-11T07:05:18.281Z,8.48
2019-04-11T07:07:51.494Z,7.65
2019-04-11T07:10:20.523Z,7.00
2019-04-11T07:13:01.253Z,7.70
2019-04-11T07:15:30.111Z,6.85
2019-04-11T07:18:15.703Z,7.25
2019-04-11T07:20:45.665Z,7.20
2019-04-11T07:23:32.770Z,7.40
2019-04-11T07:26:17.208Z,7.12
2019-04-11T07:28:46.072Z,8.30
2019-04-11T07:31:30.230Z,7.30
2019-04-11T07:34:08.743Z,8.15
2019-04-11T07:36:54.151Z,7.25
2019-04-11T07:39:25.744Z,7.53
2019-04-11T07:41:56.015Z,8.20
2019-04-11T07:44:34.105Z,7.75
2019-04-11T07:47:19.221Z,7.50
2019-04-11T07:49:46.008Z,8.93
2019-04-11T07:52:15.548Z,6.60
2019-04-11T07:54:43.350Z,7.80
2019-04-11T07:57:19.166Z,7.85
2019-04-11T08:00:00.236Z,8.63
2019-04-11T08:02:45.730Z,7.70
2019-04-11T08:05:15.438Z,7.87
2019-04-11T08:07:44.847Z,8.23
2019-04-11T08:10:30.339Z,9.20
2019-04-11T08:12:59.200Z,8.53
2019-04-11T08:15:44.608Z,8.90
2019-04-11T08:18:14.629Z,8.40
2019-04-11T08:21:00.354Z,8.97
2019-04-11T08:23:27.795Z,7.97
2019-04-11T08:25:59.991Z,8.87
2019-04-11T08:28:27.184Z,9.33
2019-04-11T08:30:57.255Z,10.43
2019-04-11T08:33:26.712Z,10.30
2019-04-11T08:35:57.120Z,10.10
2019-04-11T08:38:29.299Z,9.40
2019-04-11T08:41:11.348Z,9.40
2019-04-11T08:43:39.370Z,8.77
2019-04-11T08:46:11.045Z,9.10
2019-04-11T08:48:45.771Z,9.57
2019-04-11T08:51:14.863Z,8.63
2019-04-11T08:53:44.808Z,8.70
2019-04-11T08:56:14.659Z,10.07
2019-04-11T08:59:02.790Z,9.50
2019-04-11T09:01:30.075Z,9.70
2019-04-11T09:04:16.708Z,9.83
2019-04-11T09:06:45.066Z,9.60
2019-04-11T09:09:31.508Z,9.33
2019-04-11T09:12:00.546Z,9.90
2019-04-11T09:14:46.488Z,9.90
2019-04-11T09:17:16.479Z,9.97
2019-04-11T09:19:55.025Z,8.87
2019-04-11T09:22:39.983Z,11.00
2019-04-11T09:25:08.933Z,9.90
2019-04-11T09:27:55.571Z,10.13
2019-04-11T09:30:28.497Z,11.07
2019-04-11T09:33:15.048Z,10.70
2019-04-11T09:35:47.205Z,9.80
2019-04-11T09:38:16.083Z,9.33
2019-04-11T09:40:47.958Z,10.20
2019-04-11T09:43:19.877Z,10.87
2019-04-11T09:46:06.198Z,12.50
2019-04-11T09:48:50.522Z,10.23
2019-04-11T09:51:29.538Z,10.67
2019-04-11T09:54:08.577Z,11.73
2019-04-11T09:56:50.052Z,11.90
2019-04-11T09:59:23.010Z,10.27
2019-04-11T10:02:08.572Z,10.17
2019-04-11T10:04:37.464Z,11.53
2019-04-11T10:07:23.758Z,11.07
2019-04-11T10:09:53.899Z,12.13
2019-04-11T10:12:40.464Z,11.27
2019-04-11T10:15:09.347Z,12.23
2019-04-11T10:17:42.540Z,13.90
2019-04-11T10:20:18.234Z,12.73
2019-04-11T10:22:54.359Z,11.73
2019-04-11T10:25:23.485Z,11.47
2019-04-11T10:27:57.823Z,12.70
2019-04-11T10:30:44.141Z,12.60
2019-04-11T10:33:31.250Z,13.40
2019-04-11T10:36:16.761Z,13.00
2019-04-11T10:38:44.700Z,13.27
2019-04-11T10:41:25.385Z,12.13
2019-04-11T10:43:53.686Z,14.83
2019-04-11T10:46:23.001Z,13.43
2019-04-11T10:49:01.181Z,13.27
2019-04-11T10:51:42.348Z,12.67
2019-04-11T10:54:11.358Z,11.53
2019-04-11T10:56:47.465Z,11.47
2019-04-11T10:59:15.488Z,13.43
2019-04-11T11:02:01.274Z,13.00
2019-04-11T11:04:30.357Z,13.67
2019-04-11T11:07:00.073Z,12.90
2019-04-11T11:09:47.534Z,13.50
2019-04-11T11:12:19.094Z,12.23
2019-04-11T11:14:56.545Z,13.73
2019-04-11T11:18:11.456Z,13.07
2019-04-11T11:20:38.602Z,11.80
2019-04-11T11:23:19.022Z,12.13
2019-04-11T11:25:51.981Z,11.57
2019-04-11T11:28:21.481Z,10.10
2019-04-11T11:31:05.757Z,11.90
2019-04-11T11:33:34.626Z,12.70
2019-04-11T11:36:13.078Z,12.60
2019-04-11T11:38:42.081Z,12.73
2019-04-11T11:41:28.121Z,11.47
2019-04-11T11:43:55.362Z,11.13
2019-04-11T11:46:34.143Z,13.00
2019-04-11T11:49:03.093Z,13.33
2019-04-11T11:51:35.346Z,13.13
2019-04-11T11:54:05.183Z,11.03
2019-04-11T11:56:34.126Z,12.57
2019-04-11T11:59:13.215Z,12.97
2019-04-11T12:01:49.332Z,11.23
2019-04-11T12:04:24.022Z,11.87
2019-04-11T12:06:58.141Z,12.00
2019-04-11T12:09:24.655Z,12.33
2019-04-11T12:11:54.356Z,12.20
2019-04-11T12:14:43.410Z,12.47
2019-04-11T12:17:29.299Z,12.73
2019-04-11T12:20:04.994Z,12.03
2019-04-11T12:22:28.963Z,12.73
2019-04-11T12:25:07.190Z,11.67
2019-04-11T12:27:48.584Z,13.30
2019-04-11T12:30:30.510Z,11.60
2019-04-11T12:33:05.887Z,12.57
2019-04-11T12:35:50.682Z,12.10
2019-04-11T12:38:35.865Z,12.17
2019-04-11T12:41:13.487Z,12.10
2019-04-11T12:43:45.252Z,10.27
2019-04-11T12:46:30.744Z,11.47
2019-04-11T12:48:59.619Z,11.97
2019-04-11T12:51:45.083Z,11.53
2019-04-11T12:54:13.084Z,13.70
2019-04-11T12:56:47.928Z,11.23
2019-04-11T12:59:15.224Z,12.97
2019-04-11T13:01:44.087Z,12.63
2019-04-11T13:04:12.953Z,11.87
2019-04-11T13:06:50.712Z,12.30
2019-04-11T13:09:19.584Z,11.60
2019-04-11T13:11:54.146Z,12.13
2019-04-11T13:14:39.355Z,12.27
2019-04-11T13:17:13.945Z,12.77
2019-04-11T13:19:42.814Z,13.60
2019-04-11T13:22:11.680Z,13.23
2019-04-11T13:24:55.827Z,11.60
2019-04-11T13:27:24.719Z,11.53
2019-04-11T13:30:09.996Z,13.23
2019-04-11T13:32:38.868Z,11.20
2019-04-11T13:35:14.751Z,12.30
2019-04-11T13:38:00.304Z,12.00
2019-04-11T13:40:43.953Z,12.73
2019-04-11T13:43:12.810Z,11.63
2019-04-11T13:45:44.349Z,12.27
2019-04-11T13:48:29.807Z,10.17
2019-04-11T13:50:58.679Z,12.10
2019-04-11T13:53:39.255Z,12.27
2019-04-11T13:56:06.651Z,12.30
2019-04-11T13:58:38.424Z,14.63
2019-04-11T14:01:06.733Z,14.47
2019-04-11T14:03:52.253Z,15.37
2019-04-11T14:06:20.352Z,11.90
2019-04-11T14:08:54.846Z,11.73
2019-04-11T14:11:29.044Z,13.63
2019-04-11T14:13:56.288Z,15.80
2019-04-11T14:16:24.894Z,12.03
2019-04-11T14:19:07.146Z,11.83
2019-04-11T14:21:34.583Z,13.00
2019-04-11T14:24:20.152Z,11.57
2019-04-11T14:26:51.723Z,11.70
2019-04-11T14:29:20.583Z,11.37
2019-04-11T14:31:50.912Z,10.70
2019-04-11T14:34:22.719Z,10.33
2019-04-11T14:37:09.772Z,11.00
2019-04-11T14:39:38.638Z,11.73
2019-04-11T14:42:23.703Z,10.63
2019-04-11T14:44:52.620Z,11.10
2019-04-11T14:47:27.458Z,10.80
2019-04-11T14:50:02.119Z,12.00
2019-04-11T14:52:47.378Z,12.13
2019-04-11T14:55:16.728Z,10.87
2019-04-11T14:58:01.985Z,11.87
2019-04-11T15:00:36.692Z,10.53
2019-04-11T15:03:20.923Z,13.43
2019-04-11T15:05:49.792Z,10.67
2019-04-11T15:08:18.671Z,10.90
2019-04-11T15:11:04.086Z,12.20
2019-04-11T15:13:32.679Z,10.90
2019-04-11T15:16:18.126Z,11.47
2019-04-11T15:18:46.998Z,10.57
2019-04-11T15:21:18.517Z,10.73
2019-04-11T15:23:45.741Z,11.60
2019-04-11T15:26:29.853Z,12.30
2019-04-11T15:28:58.715Z,12.17
2019-04-11T15:31:39.095Z,10.60
2019-04-11T15:34:18.831Z,12.60
2019-04-11T15:36:47.706Z,11.53
2019-04-11T15:39:19.420Z,12.23
2019-04-11T15:41:48.308Z,12.87
2019-04-11T15:44:20.119Z,11.47
2019-04-11T15:46:47.871Z,10.20
2019-04-11T15:49:35.226Z,9.70
2019-04-11T15:52:06.276Z,10.70
2019-04-11T15:54:50.907Z,11.73
2019-04-11T15:57:26.904Z,11.20
2019-04-11T15:59:56.055Z,12.43
2019-04-11T16:02:41.604Z,12.50
2019-04-11T16:05:26.821Z,17.27
2019-04-11T16:08:12.163Z,12.90
2019-04-11T16:10:56.077Z,11.40
2019-04-11T16:13:30.638Z,13.30
2019-04-11T16:16:06.579Z,11.00
2019-04-11T16:18:47.167Z,12.33
2019-04-11T16:21:25.431Z,11.60
2019-04-11T16:24:00.303Z,15.77
2019-04-11T16:26:29.171Z,11.47
2019-04-11T16:28:59.102Z,11.00
2019-04-11T16:31:28.075Z,12.13
2019-04-11T16:34:15.835Z,11.77
2019-04-11T16:36:44.221Z,9.90
2019-04-11T16:39:13.084Z,10.43
2019-04-11T16:42:00.079Z,12.10
2019-04-11T16:44:46.205Z,9.53
2019-04-11T16:47:32.075Z,10.33
2019-04-11T16:49:59.304Z,10.63
2019-04-11T16:52:26.582Z,10.90
2019-04-11T16:54:53.843Z,12.00
2019-04-11T16:57:21.078Z,10.83
2019-04-11T16:59:49.805Z,9.43
2019-04-11T17:02:17.246Z,10.20
2019-04-11T17:04:44.467Z,10.53
2019-04-11T17:07:31.711Z,10.90
2019-04-11T17:10:00.563Z,9.93
2019-04-11T17:12:27.799Z,10.37
2019-04-11T17:14:55.010Z,11.17
2019-04-11T17:17:22.248Z,13.03
2019-04-11T17:19:49.464Z,10.20
2019-04-11T17:22:16.776Z,10.00
2019-04-11T17:24:47.612Z,11.93
2019-04-11T17:27:14.608Z,10.77
2019-04-11T17:29:41.835Z,10.97
2019-04-11T17:32:09.054Z,10.63
2019-04-11T17:34:36.283Z,10.53
2019-04-11T17:37:03.505Z,10.10
2019-04-11T17:39:30.740Z,11.17
2019-04-11T17:41:57.959Z,10.30
2019-04-11T17:44:25.189Z,10.20
2019-04-11T17:46:56.452Z,11.67
2019-04-11T17:49:21.372Z,11.60
2019-04-11T17:51:55.574Z,11.53
2019-04-11T17:54:17.563Z,12.60
2019-04-11T17:56:44.779Z,11.13
2019-04-11T17:59:12.220Z,12.13
2019-04-11T18:01:39.510Z,10.07
2019-04-11T18:04:08.791Z,12.27
2019-04-11T18:06:35.855Z,11.10
2019-04-11T18:09:04.813Z,10.80
2019-04-11T18:11:32.022Z,10.37
2019-04-11T18:14:00.975Z,11.40
2019-04-11T18:16:28.841Z,10.03
2019-04-11T18:18:57.151Z,10.32
2019-04-11T18:21:24.366Z,10.63
2019-04-11T18:23:51.607Z,12.13
2019-04-11T18:26:19.047Z,13.90
2019-04-11T18:28:51.735Z,12.67
2019-04-11T18:31:19.008Z,13.00
2019-04-11T18:33:45.771Z,11.10
2019-04-11T18:36:13.014Z,12.75
2019-04-11T18:38:40.408Z,9.60
2019-04-11T18:41:07.638Z,11.68
2019-04-11T18:43:35.651Z,10.35
2019-04-11T18:46:02.876Z,10.83
2019-04-11T18:48:30.175Z,10.87
2019-04-11T18:50:57.390Z,9.73
2019-04-11T18:53:24.619Z,10.60
2019-04-11T18:55:51.899Z,9.58
2019-04-11T18:58:19.156Z,10.13
2019-04-11T19:00:46.399Z,8.73
2019-04-11T19:03:14.460Z,9.45
2019-04-11T19:05:43.010Z,10.97
2019-04-11T19:08:12.883Z,10.45
2019-04-11T19:10:40.044Z,11.12
2019-04-11T19:13:07.269Z,9.68
2019-04-11T19:15:34.501Z,9.88
2019-04-11T19:18:06.767Z,9.50
2019-04-11T19:20:30.679Z,9.38
2019-04-11T19:22:57.907Z,11.78
2019-04-11T19:25:25.139Z,10.40
2019-04-11T19:27:54.221Z,9.40
2019-04-11T19:30:21.331Z,11.28
2019-04-11T19:32:48.605Z,8.55
2019-04-11T19:35:15.843Z,10.35
2019-04-11T19:37:43.078Z,9.75
2019-04-11T19:40:10.984Z,8.55
2019-04-11T19:42:38.237Z,9.23
2019-04-11T19:45:06.602Z,9.73
2019-04-11T19:47:33.827Z,9.38
2019-04-11T19:50:01.087Z,8.00
2019-04-11T19:52:29.847Z,9.98
2019-04-11T19:54:58.920Z,8.23
2019-04-11T19:57:26.148Z,8.95
2019-04-11T19:59:53.392Z,9.20
2019-04-11T20:02:23.149Z,8.13
2019-04-11T20:04:49.635Z,9.43
2019-04-11T20:07:16.871Z,7.75
2019-04-11T20:09:44.094Z,8.23
2019-04-11T20:12:11.327Z,8.63
2019-04-11T20:14:38.550Z,9.13
2019-04-11T20:17:05.793Z,13.28
2019-04-11T20:19:33.046Z,9.90
2019-04-11T20:22:00.321Z,11.30
2019-04-11T20:24:27.545Z,14.50
2019-04-11T20:26:54.777Z,11.50
2019-04-11T20:29:22.142Z,9.75
2019-04-11T20:31:49.512Z,10.35
2019-04-11T20:34:26.827Z,10.00
2019-04-11T20:36:45.706Z,9.68
2019-04-11T20:39:15.262Z,8.48
2019-04-11T20:41:41.888Z,9.33
2019-04-11T20:44:09.107Z,8.80
2019-04-11T20:46:36.348Z,8.80
2019-04-11T20:49:04.408Z,11.83
2019-04-11T20:51:31.645Z,9.20
2019-04-11T20:53:58.876Z,9.98
2019-04-11T20:56:26.103Z,12.35
2019-04-11T20:58:53.323Z,9.15
2019-04-11T21:01:20.555Z,9.15
2019-04-11T21:03:47.780Z,10.23
2019-04-11T21:06:15.011Z,9.53
2019-04-11T21:08:42.231Z,9.38
2019-04-11T21:11:09.498Z,8.48
2019-04-11T21:13:38.355Z,12.07
2019-04-11T21:16:05.675Z,9.73
2019-04-11T21:18:32.903Z,9.45
2019-04-11T21:21:00.126Z,8.63
2019-04-11T21:23:29.583Z,7.35
2019-04-11T21:25:58.825Z,8.55
2019-04-11T21:28:25.308Z,8.00
2019-04-11T21:30:52.605Z,7.75
2019-04-11T21:33:19.871Z,8.90
2019-04-11T21:35:47.107Z,7.83
2019-04-11T21:38:14.340Z,7.80
2019-04-11T21:40:41.581Z,8.73
2019-04-11T21:43:08.876Z,7.87
2019-04-11T21:45:36.580Z,7.70
2019-04-11T21:48:05.626Z,8.40
2019-04-11T21:50:32.945Z,7.92
2019-04-11T21:53:00.168Z,7.15
2019-04-11T21:55:27.391Z,7.45
2019-04-11T21:57:54.636Z,7.92
2019-04-11T22:00:25.024Z,8.08
2019-04-11T22:02:54.335Z,8.25
2019-04-11T22:05:21.261Z,6.70
2019-04-11T22:07:48.559Z,7.60
2019-04-11T22:10:15.817Z,7.83
2019-04-11T22:12:43.043Z,7.85
2019-04-11T22:15:11.922Z,7.70
2019-04-11T22:17:39.276Z,8.65
2019-04-11T22:20:06.506Z,8.18
2019-04-11T22:22:33.726Z,8.93
2019-04-11T22:25:00.947Z,7.25
2019-04-11T22:27:28.177Z,6.35
2019-04-11T22:29:55.852Z,8.13
2019-04-11T22:32:23.776Z,7.65
2019-04-11T22:34:52.400Z,6.90
2019-04-11T22:37:19.640Z,8.10
2019-04-11T22:39:46.855Z,8.63
2019-04-11T22:42:14.220Z,7.75
2019-04-11T22:44:41.517Z,6.75
2019-04-11T22:47:08.742Z,8.75
2019-04-11T22:49:36.844Z,8.53
2019-04-11T22:52:04.899Z,7.55
2019-04-11T22:54:32.127Z,7.75
2019-04-11T22:56:59.350Z,7.90
2019-04-11T22:59:26.606Z,8.25
2019-04-11T23:01:55.704Z,8.33
2019-04-11T23:04:22.934Z,8.08
2019-04-11T23:06:50.150Z,7.58
2019-04-11T23:09:19.566Z,8.18
2019-04-11T23:11:46.319Z,7.75
2019-04-11T23:14:15.912Z,7.65
2019-04-11T23:16:44.184Z,10.00
2019-04-11T23:19:13.747Z,8.73
2019-04-11T23:21:42.164Z,7.90
2019-04-11T23:24:11.957Z,8.43
2019-04-11T23:26:38.564Z,8.53
2019-04-11T23:29:05.789Z,8.70
2019-04-11T23:31:32.998Z,7.65
2019-04-11T23:34:00.223Z,9.93
2019-04-11T23:36:27.444Z,8.80
2019-04-11T23:38:54.667Z,8.15
2019-04-11T23:41:21.892Z,7.97
2019-04-11T23:43:50.010Z,7.42
2019-04-11T23:46:18.920Z,7.92
2019-04-11T23:48:46.667Z,8.58
2019-04-11T23:51:13.890Z,9.13
2019-04-11T23:53:41.108Z,8.58
2019-04-11T23:56:08.328Z,8.38
2019-04-11T23:58:35.548Z,7.97
